Time;durP1;ratioP1;P1;durP2;ratioP2;P2;SDS_P1;SDS_P2;PMS_P1;PMS_P2;Temp;Humidity;BMP_temperature;BMP_pressure;BME280_temperature;BME280_humidity;BME280_pressure;Samples;Min_cycle;Max_cycle;Signal;HPM_P1;HPM_P2
2023/12/28 00:02:11;;;;;;;;;85.25;64.25;;;;;-143.90;100.00;76845.09;4918508;28;101570;-72
2023/12/28 00:04:37;;;;;;;;;88.50;62.00;;;;;-143.90;100.00;76847.16;4922616;28;103498;-71
2023/12/28 00:07:04;;;;;;;;;88.00;62.50;;;;;-143.90;100.00;76845.09;4916529;28;102071;-72
2023/12/28 00:09:31;;;;;;;;;74.75;58.75;;;;;-143.90;100.00;76847.16;4917049;28;102057;-72
2023/12/28 00:11:58;;;;;;;;;76.25;55.50;;;;;-143.90;100.00;76822.34;4926826;28;102047;-72
2023/12/28 00:14:25;;;;;;;;;69.33;53.00;;;;;-143.90;100.00;76809.94;4921279;28;107965;-72
2023/12/28 00:16:51;;;;;;;;;62.67;45.00;;;;;-143.90;100.00;76793.38;4916703;28;102254;-72
2023/12/28 00:19:20;;;;;;;;;47.33;36.00;;;;;-143.90;100.00;76772.72;4917536;28;102028;-71
2023/12/28 00:21:48;;;;;;;;;38.33;31.00;;;;;-143.90;100.00;76752.03;4919522;28;102145;-72
2023/12/28 00:24:20;;;;;;;;;32.33;26.67;;;;;-143.90;100.00;76741.69;4923981;28;103590;-71
2023/12/28 00:26:46;;;;;;;;;23.00;16.33;;;;;-143.90;100.00;76727.22;4920268;28;101709;-72
2023/12/28 00:29:13;;;;;;;;;17.00;15.00;;;;;-143.90;100.00;76710.66;4914388;28;101566;-71
2023/12/28 00:31:40;;;;;;;;;22.00;16.00;;;;;-143.90;100.00;76698.25;4924303;28;102019;-72
2023/12/28 00:34:06;;;;;;;;;39.00;29.67;;;;;-143.90;100.00;76692.03;4919471;28;103944;-71
2023/12/28 00:36:33;;;;;;;;;63.33;50.00;;;;;-143.90;100.00;76723.06;4920711;28;103122;-71
2023/12/28 00:39:00;;;;;;;;;65.33;49.00;;;;;-143.90;100.00;76745.81;4914085;28;104986;-71
2023/12/28 00:41:26;;;;;;;;;61.67;46.67;;;;;-143.90;100.00;76747.88;4926188;28;101876;-72
2023/12/28 00:43:53;;;;;;;;;65.33;50.00;;;;;-143.90;100.00;76764.44;4919913;28;103586;-71
2023/12/28 00:46:20;;;;;;;;;70.00;54.00;;;;;-143.90;100.00;76776.84;4921725;28;101926;-72
2023/12/28 00:48:46;;;;;;;;;67.33;47.67;;;;;-143.90;100.00;76785.13;4912989;28;101893;-71
2023/12/28 00:51:13;;;;;;;;;55.67;44.00;;;;;-143.90;100.00;76772.72;4923058;28;101940;-71
2023/12/28 00:53:40;;;;;;;;;52.00;42.33;;;;;-143.90;100.00;76778.91;4921467;28;103515;-71
2023/12/28 00:56:07;;;;;;;;;50.33;42.67;;;;;-143.90;100.00;76780.97;4922928;28;101842;-70
2023/12/28 00:58:33;;;;;;;;;66.00;51.67;;;;;-143.90;100.00;76803.72;4918583;28;101974;-70
2023/12/28 01:01:00;;;;;;;;;68.33;52.67;;;;;-143.90;100.00;76809.94;4917344;28;102206;-69
2023/12/28 01:03:27;;;;;;;;;69.33;55.00;;;;;-143.90;100.00;76803.72;4919595;28;103546;-71
2023/12/28 01:05:53;;;;;;;;;77.25;56.50;;;;;-143.90;100.00;76809.94;4911794;28;102037;-71
2023/12/28 01:08:20;;;;;;;;;78.50;59.50;;;;;-143.90;100.00;76818.22;4901864;28;102618;-71
2023/12/28 01:10:47;;;;;;;;;66.33;49.33;;;;;-143.90;100.00;76805.78;4916850;28;101520;-69
2023/12/28 01:13:14;;;;;;;;;53.33;45.00;;;;;-143.90;100.00;76795.47;4904332;28;103649;-71
2023/12/28 01:15:40;;;;;;;;;67.00;49.67;;;;;-143.90;100.00;76793.38;4921078;28;102118;-71
2023/12/28 01:18:07;;;;;;;;;65.33;50.00;;;;;-143.90;100.00;76803.72;4919966;28;101654;-71
2023/12/28 01:20:34;;;;;;;;;62.67;49.00;;;;;-143.90;100.00;76795.47;4922362;28;101770;-70
2023/12/28 01:23:02;;;;;;;;;48.67;41.67;;;;;-143.90;100.00;76789.25;4913148;28;104377;-70
2023/12/28 01:25:28;;;;;;;;;74.67;53.33;;;;;-143.90;100.00;76795.47;4925963;28;101927;-71
2023/12/28 01:27:55;;;;;;;;;42.33;38.33;;;;;-143.90;100.00;76789.25;4921894;28;101652;-71
2023/12/28 01:30:22;;;;;;;;;46.00;37.00;;;;;-143.90;100.00;76776.84;4917565;28;101857;-71
2023/12/28 01:32:49;;;;;;;;;40.00;30.00;;;;;-143.90;100.00;76776.84;4912773;28;103484;-71
2023/12/28 01:35:16;;;;;;;;;32.00;26.67;;;;;-143.90;100.00;76772.72;4917365;28;102480;-70
2023/12/28 01:37:42;;;;;;;;;30.33;24.67;;;;;-143.90;100.00;76766.50;4918463;28;102086;-70
2023/12/28 01:40:09;;;;;;;;;24.33;20.33;;;;;-143.90;100.00;76776.84;4918955;28;102100;-71
2023/12/28 01:42:36;;;;;;;;;31.33;25.33;;;;;-143.90;100.00;76787.19;4920189;28;103540;-70
2023/12/28 01:45:03;;;;;;;;;38.33;32.67;;;;;-143.90;100.00;76797.53;4913576;28;101826;-71
2023/12/28 01:47:30;;;;;;;;;54.33;39.33;;;;;-143.90;100.00;76795.47;4918838;28;101980;-69
2023/12/28 01:49:59;;;;;;;;;34.33;32.00;;;;;-143.90;100.00;76772.72;4923631;28;101701;-70
2023/12/28 01:52:27;;;;;;;;;37.00;32.00;;;;;-143.90;100.00;76783.03;4916217;28;108163;-71
2023/12/28 01:54:54;;;;;;;;;46.00;40.33;;;;;-143.90;100.00;76803.72;4893350;28;102137;-71
2023/12/28 01:57:21;;;;;;;;;51.33;42.00;;;;;-143.90;100.00;76797.53;4915664;28;103527;-71
2023/12/28 01:59:48;;;;;;;;;36.33;34.00;;;;;-143.90;100.00;76801.66;4905479;28;101679;-71
2023/12/28 02:02:16;;;;;;;;;35.33;27.00;;;;;-143.90;100.00;76787.19;4911452;28;103411;-71
2023/12/28 02:04:44;;;;;;;;;33.67;29.67;;;;;-143.90;100.00;76776.84;4911121;28;102435;-71
2023/12/28 02:07:12;;;;;;;;;21.33;19.00;;;;;-143.90;100.00;76776.84;4912473;28;101975;-71
2023/12/28 02:09:39;;;;;;;;;22.67;19.00;;;;;-143.90;100.00;76776.84;4919244;28;102249;-71
2023/12/28 02:12:06;;;;;;;;;22.00;19.00;;;;;-143.90;100.00;76780.97;4913144;28;104342;-71
2023/12/28 02:14:33;;;;;;;;;31.00;24.00;;;;;-143.90;100.00;76783.03;4918337;28;103049;-70
2023/12/28 02:17:27;;;;;;;;;72.33;54.33;;;;;-143.90;100.00;76814.06;4912286;28;101640;-71
2023/12/28 02:19:55;;;;;;;;;71.75;52.00;;;;;-143.90;100.00;76822.34;4921893;28;101862;-70
2023/12/28 02:22:25;;;;;;;;;74.25;57.25;;;;;-143.90;100.00;76843.03;4918896;28;103416;-72
2023/12/28 02:25:04;;;;;;;;;66.33;51.00;;;;;-143.90;100.00;76836.81;4916661;28;104863;-72
2023/12/28 02:27:31;;;;;;;;;75.50;52.75;;;;;-143.90;100.00;76838.88;4923105;28;101591;-72
2023/12/28 02:30:01;;;;;;;;;54.33;44.67;;;;;-143.90;100.00;76828.53;4920406;28;101864;-71
2023/12/28 02:33:12;;;;;;;;;44.33;36.67;;;;;-143.90;100.00;76814.06;4923240;28;108209;-71
2023/12/28 02:35:43;;;;;;;;;41.00;29.33;;;;;-143.90;100.00;76818.22;4842592;28;102184;-71
2023/12/28 02:38:13;;;;;;;;;33.00;24.33;;;;;-143.90;100.00;76824.41;4913193;28;101648;-71
2023/12/28 02:40:43;;;;;;;;;22.33;18.67;;;;;-143.90;100.00;76822.34;4922984;28;101710;-71
2023/12/28 02:43:11;;;;;;;;;32.67;25.00;;;;;-143.90;100.00;76826.47;4919528;28;103544;-72
2023/12/28 02:45:38;;;;;;;;;35.67;27.33;;;;;-143.90;100.00;76830.63;4921372;28;101975;-71
2023/12/28 02:48:06;;;;;;;;;16.00;10.33;;;;;-143.90;100.00;76826.47;4923090;28;102515;-71
2023/12/28 02:50:33;;;;;;;;;26.00;23.33;;;;;-143.90;100.00;76824.41;4924199;28;101938;-71
2023/12/28 02:53:00;;;;;;;;;21.00;17.33;;;;;-143.90;100.00;76814.06;4919430;28;107716;-71
2023/12/28 02:55:27;;;;;;;;;20.33;17.00;;;;;-143.90;100.00;76812.00;4924728;28;101584;-71
2023/12/28 02:57:59;;;;;;;;;21.67;14.00;;;;;-143.90;100.00;76805.78;4917031;28;101838;-71
2023/12/28 03:00:28;;;;;;;;;13.33;11.33;;;;;-143.90;100.00;76801.66;4923546;28;101879;-71
2023/12/28 03:02:55;;;;;;;;;14.00;13.33;;;;;-143.90;100.00;76801.66;4916253;28;103534;-70
2023/12/28 03:05:21;;;;;;;;;60.00;48.00;;;;;-143.90;100.00;76822.34;4905050;28;101923;-71
2023/12/28 03:07:48;;;;;;;;;75.50;57.75;;;;;-143.90;100.00;76838.88;4922998;28;101560;-71
2023/12/28 03:10:15;;;;;;;;;88.00;65.75;;;;;-143.90;100.00;76836.81;4922511;28;101837;-71
2023/12/28 03:12:42;;;;;;;;;81.50;58.00;;;;;-143.90;100.00;76822.34;4921238;28;103609;-71
2023/12/28 03:15:08;;;;;;;;;88.25;64.75;;;;;-143.90;100.00;76822.34;4918060;28;101967;-71
2023/12/28 03:17:36;;;;;;;;;79.50;57.00;;;;;-143.90;100.00;76814.06;4923960;28;101923;-71
2023/12/28 03:20:04;;;;;;;;;72.75;54.25;;;;;-143.90;100.00;76814.06;4923005;28;101993;-69
2023/12/28 03:22:31;;;;;;;;;66.67;51.33;;;;;-143.90;100.00;76812.00;4925207;28;102918;-71
2023/12/28 03:24:57;;;;;;;;;68.50;52.00;;;;;-143.90;100.00;76814.06;4911676;28;103168;-70
2023/12/28 03:27:24;;;;;;;;;74.00;57.00;;;;;-143.90;100.00;76818.22;4922163;28;101570;-70
2023/12/28 03:29:51;;;;;;;;;74.00;57.00;;;;;-143.90;100.00;76818.22;4919854;28;101604;-70
2023/12/28 03:32:17;;;;;;;;;84.00;62.25;;;;;-143.90;100.00;76830.63;4919931;28;103668;-71
2023/12/28 03:34:44;;;;;;;;;69.50;53.75;;;;;-143.90;100.00;76818.22;4918427;28;101998;-70
2023/12/28 03:37:11;;;;;;;;;69.75;54.50;;;;;-143.90;100.00;76814.06;4920109;28;102682;-70
2023/12/28 03:39:38;;;;;;;;;79.50;56.50;;;;;-143.90;100.00;76809.94;4908514;28;101935;-72
2023/12/28 03:42:04;;;;;;;;;69.50;53.25;;;;;-143.90;100.00;76805.78;4922345;28;103528;-71
2023/12/28 03:44:31;;;;;;;;;55.33;45.33;;;;;-143.90;100.00;76801.66;4923288;28;101787;-71
2023/12/28 03:46:58;;;;;;;;;74.00;54.50;;;;;-143.90;100.00;76809.94;4914105;28;103790;-70
2023/12/28 03:49:24;;;;;;;;;47.00;43.00;;;;;-143.90;100.00;76814.06;4923943;28;104015;-70
2023/12/28 03:51:51;;;;;;;;;41.00;31.67;;;;;-143.90;100.00;76805.78;4923735;28;103373;-70
2023/12/28 03:54:19;;;;;;;;;48.67;41.00;;;;;-143.90;100.00;76797.53;4914760;28;102081;-70
2023/12/28 03:56:47;;;;;;;;;39.67;35.33;;;;;-143.90;100.00;76797.53;4912699;28;102038;-70
2023/12/28 03:59:17;;;;;;;;;57.67;47.00;;;;;-143.90;100.00;76803.72;4920915;28;101849;-70
2023/12/28 04:01:44;;;;;;;;;58.33;48.33;;;;;-143.90;100.00;76816.13;4921428;28;103447;-72
2023/12/28 04:04:11;;;;;;;;;73.75;56.00;;;;;-143.90;100.00;76830.63;4922901;28;101811;-72
2023/12/28 04:06:38;;;;;;;;;75.50;59.00;;;;;-143.90;100.00;76838.88;4917308;28;102345;-70
2023/12/28 04:09:05;;;;;;;;;84.25;62.00;;;;;-143.90;100.00;76849.22;4919027;28;103595;-70
2023/12/28 04:11:32;;;;;;;;;80.00;61.00;;;;;-143.90;100.00;76871.97;4919977;28;103827;-72
2023/12/28 04:13:58;;;;;;;;;90.25;68.50;;;;;-143.90;100.00;76871.97;4919718;28;101792;-73
2023/12/28 04:16:25;;;;;;;;;79.50;58.25;;;;;-143.90;100.00;76863.72;4920175;28;101914;-73
2023/12/28 04:18:52;;;;;;;;;74.00;54.25;;;;;-143.90;100.00;76853.38;4915965;28;102170;-70
2023/12/28 04:21:19;;;;;;;;;60.00;48.00;;;;;-143.90;100.00;76853.38;4922055;28;103605;-71
2023/12/28 04:23:45;;;;;;;;;73.25;57.25;;;;;-143.90;100.00;76863.72;4921453;28;102155;-71
2023/12/28 04:26:12;;;;;;;;;82.00;60.00;;;;;-143.90;100.00;76878.19;4921689;28;102134;-71
2023/12/28 04:28:39;;;;;;;;;70.75;56.75;;;;;-143.90;100.00;76888.53;4924183;28;101836;-71
2023/12/28 04:31:07;;;;;;;;;73.00;55.25;;;;;-143.90;100.00;76888.53;4917444;28;103605;-71
2023/12/28 04:33:34;;;;;;;;;87.00;59.00;;;;;-143.90;100.00;76900.94;4921143;28;101770;-71
2023/12/28 04:36:04;;;;;;;;;76.50;58.50;;;;;-143.90;100.00;76886.47;4923778;28;101926;-71
2023/12/28 04:38:31;;;;;;;;;71.00;54.50;;;;;-143.90;100.00;76880.25;4919863;28;101597;-71
2023/12/28 04:40:59;;;;;;;;;56.50;47.25;;;;;-143.90;100.00;76876.13;4914388;28;111367;-71
2023/12/28 04:43:26;;;;;;;;;56.67;45.33;;;;;-143.90;100.00;76876.13;4921148;28;101672;-71
2023/12/28 04:45:53;;;;;;;;;45.33;35.67;;;;;-143.90;100.00;76871.97;4922644;28;102235;-71
2023/12/28 04:48:21;;;;;;;;;34.67;25.67;;;;;-143.90;100.00;76863.72;4925092;28;101855;-72
2023/12/28 04:50:48;;;;;;;;;27.33;24.33;;;;;-143.90;100.00;76859.56;4911697;28;103317;-71
2023/12/28 04:53:15;;;;;;;;;24.67;23.67;;;;;-143.90;100.00;76851.31;4921357;28;102109;-72
2023/12/28 04:55:42;;;;;;;;;20.00;16.33;;;;;-143.90;100.00;76853.38;4921327;28;103832;-72
2023/12/28 04:58:10;;;;;;;;;18.67;16.33;;;;;-143.90;100.00;76843.03;4922830;28;101999;-71
2023/12/28 05:00:37;;;;;;;;;16.00;13.67;;;;;-143.90;100.00;76843.03;4920215;28;104507;-72
2023/12/28 05:03:04;;;;;;;;;36.67;33.67;;;;;-143.90;100.00;76861.63;4914850;28;103077;-72
2023/12/28 05:05:30;;;;;;;;;64.00;52.25;;;;;-143.90;100.00;76867.84;4921528;28;101869;-72
2023/12/28 05:07:57;;;;;;;;;71.00;54.50;;;;;-143.90;100.00;76865.78;4919528;28;102049;-72
2023/12/28 05:10:24;;;;;;;;;71.25;57.00;;;;;-143.90;100.00;76865.78;4923517;28;103637;-72
2023/12/28 05:12:50;;;;;;;;;83.00;62.50;;;;;-143.90;100.00;76867.84;4916254;28;102519;-72
2023/12/28 05:15:19;;;;;;;;;81.75;64.00;;;;;-143.90;100.00;76888.53;4919732;28;102367;-72
2023/12/28 05:17:46;;;;;;;;;71.25;50.25;;;;;-143.90;100.00;76892.66;4923016;28;102400;-72
2023/12/28 05:20:13;;;;;;;;;80.25;60.25;;;;;-143.90;100.00;76903.00;4920635;28;103780;-73
2023/12/28 05:22:40;;;;;;;;;74.75;55.00;;;;;-143.90;100.00;76905.06;4918833;28;102077;-72
2023/12/28 05:25:07;;;;;;;;;51.00;42.33;;;;;-143.90;100.00;76888.53;4898158;28;101777;-72
2023/12/28 05:27:34;;;;;;;;;53.00;39.33;;;;;-143.90;100.00;76874.06;4922002;28;103496;-72
2023/12/28 05:30:00;;;;;;;;;39.33;34.33;;;;;-143.90;100.00;76871.97;4922738;28;103317;-72
2023/12/28 05:32:27;;;;;;;;;29.67;28.00;;;;;-143.90;100.00;76863.72;4917133;28;101769;-72
2023/12/28 05:34:53;;;;;;;;;30.33;27.33;;;;;-143.90;100.00;76861.63;4915788;28;101903;-73
2023/12/28 05:37:20;;;;;;;;;25.67;20.00;;;;;-143.90;100.00;76845.09;4923321;28;102238;-72
2023/12/28 05:39:47;;;;;;;;;31.67;27.00;;;;;-143.90;100.00;76838.88;4919864;28;103478;-72
2023/12/28 05:42:13;;;;;;;;;27.00;24.33;;;;;-143.90;100.00;76820.28;4921699;28;102320;-72
2023/12/28 05:44:40;;;;;;;;;22.00;20.67;;;;;-143.90;100.00;76789.25;4922439;28;101637;-72
2023/12/28 05:47:07;;;;;;;;;27.67;24.00;;;;;-143.90;100.00;76747.88;4918521;28;104217;-72
2023/12/28 05:49:33;;;;;;;;;28.00;27.00;;;;;-143.90;100.00;76712.72;4918311;28;103967;-71
2023/12/28 05:52:00;;;;;;;;;24.33;20.67;;;;;-143.90;100.00;76669.28;4926238;28;101697;-72
2023/12/28 05:54:27;;;;;;;;;35.33;31.67;;;;;-143.90;100.00;76632.06;4924478;28;102314;-71
2023/12/28 05:56:54;;;;;;;;;44.67;28.00;;;;;-143.90;100.00;76596.91;4920011;28;103461;-71
2023/12/28 05:59:21;;;;;;;;;43.67;35.00;;;;;-143.90;100.00;76574.16;4925755;28;103573;-70
2023/12/28 06:01:48;;;;;;;;;35.33;29.00;;;;;-143.90;100.00;76545.22;4924177;28;101852;-70
2023/12/28 06:04:15;;;;;;;;;33.33;27.33;;;;;-143.90;100.00;76532.78;4926733;28;101958;-72
2023/12/28 06:06:42;;;;;;;;;40.33;27.33;;;;;-143.90;100.00;76507.97;4926543;28;101906;-72
2023/12/28 06:09:08;;;;;;;;;32.67;28.33;;;;;-143.90;100.00;76491.44;4920946;28;104229;-71
2023/12/28 06:11:35;;;;;;;;;28.33;25.33;;;;;-143.90;100.00;76479.03;4928411;28;103783;-71
2023/12/28 06:14:02;;;;;;;;;29.33;24.33;;;;;-143.90;100.00;76483.16;4925650;28;103264;-72
2023/12/28 06:16:32;;;;;;;;;32.00;25.00;;;;;-143.90;100.00;76466.63;4925316;28;101649;-72
2023/12/28 06:19:00;;;;;;;;;34.33;26.33;;;;;-143.90;100.00;76441.81;4917527;28;108001;-72
2023/12/28 06:21:28;;;;;;;;;43.00;31.67;;;;;-143.90;100.00;76441.81;4925406;28;101970;-72
2023/12/28 06:23:55;;;;;;;;;41.33;35.00;;;;;-143.90;100.00;76466.63;4926679;28;101914;-72
2023/12/28 06:26:21;;;;;;;;;43.33;39.33;;;;;-143.90;100.00;76454.22;4927619;28;102044;-72
2023/12/28 06:28:48;;;;;;;;;29.00;24.33;;;;;-143.90;100.00;76450.06;4916810;28;103415;-72
2023/12/28 06:31:15;;;;;;;;;39.00;30.33;;;;;-143.90;100.00;76423.19;4925393;28;101930;-72
2023/12/28 06:33:41;;;;;;;;;32.67;29.33;;;;;-143.90;100.00;76421.13;4926144;28;103784;-72
2023/12/28 06:36:09;;;;;;;;;35.00;24.00;;;;;-143.90;100.00;76419.06;4927514;28;101964;-72
2023/12/28 06:38:36;;;;;;;;;20.33;20.00;;;;;-143.90;100.00;76421.13;4925486;28;103497;-72
2023/12/28 06:41:10;;;;;;;;;20.00;16.00;;;;;-143.90;100.00;76429.41;4909479;28;101810;-72
2023/12/28 06:43:36;;;;;;;;;15.75;14.75;;;;;-143.90;100.00;76429.41;4921015;28;102488;-72
2023/12/28 06:46:03;;;;;;;;;19.25;15.25;;;;;-143.90;100.00;76433.53;4928341;28;104816;-72
2023/12/28 06:48:30;;;;;;;;;16.75;13.50;;;;;-143.90;100.00;76431.47;4924955;28;107930;-72
2023/12/28 06:50:57;;;;;;;;;14.00;12.75;;;;;-143.90;100.00;76441.81;4918280;28;102290;-72
2023/12/28 06:53:23;;;;;;;;;15.75;13.00;;;;;-143.90;100.00;76445.94;4920209;28;101598;-72
2023/12/28 06:55:50;;;;;;;;;13.75;12.25;;;;;-143.90;100.00;76448.00;4925385;28;101752;-72
2023/12/28 06:58:16;;;;;;;;;16.25;13.00;;;;;-143.90;100.00;76441.81;4924753;28;103374;-73
2023/12/28 07:00:44;;;;;;;;;14.50;12.00;;;;;-143.90;100.00;76441.81;4919909;28;102035;-72
2023/12/28 07:03:11;;;;;;;;;10.00;8.75;;;;;-143.90;100.00;76437.66;4898918;28;102503;-72
2023/12/28 07:05:38;;;;;;;;;5.75;4.50;;;;;-143.90;100.00;76429.41;4925055;28;101956;-72
2023/12/28 07:08:05;;;;;;;;;7.75;6.00;;;;;-143.90;100.00;76437.66;4925372;28;103450;-72
2023/12/28 07:10:31;;;;;;;;;12.25;8.00;;;;;-143.90;100.00;76433.53;4927947;28;101694;-72
2023/12/28 07:12:58;;;;;;;;;12.25;8.75;;;;;-143.90;100.00;76423.19;4915202;28;104051;-70
2023/12/28 07:15:25;;;;;;;;;9.75;8.00;;;;;-143.90;100.00;76414.91;4923316;28;101928;-71
2023/12/28 07:17:51;;;;;;;;;8.00;8.00;;;;;-143.90;100.00;76404.56;4925262;28;103360;-72
2023/12/28 07:20:18;;;;;;;;;10.50;9.25;;;;;-143.90;100.00;76404.56;4923469;28;102001;-72
2023/12/28 07:22:45;;;;;;;;;17.00;14.50;;;;;-143.90;100.00;76388.03;4922326;28;101553;-72
2023/12/28 07:25:12;;;;;;;;;16.50;14.00;;;;;-143.90;100.00;76392.16;4923738;28;102065;-72
2023/12/28 07:27:38;;;;;;;;;35.33;25.67;;;;;-143.90;100.00;76400.44;4923904;28;103416;-72
2023/12/28 07:30:07;;;;;;;;;23.67;21.33;;;;;-143.90;100.00;76388.03;4925222;28;101970;-72
2023/12/28 07:32:34;;;;;;;;;22.50;20.25;;;;;-143.90;100.00;76377.69;4925443;28;102287;-73
2023/12/28 07:35:01;;;;;;;;;21.00;17.50;;;;;-143.90;100.00;76371.50;4921999;28;101954;-72
2023/12/28 07:37:27;;;;;;;;;21.50;19.25;;;;;-143.90;100.00;76377.69;4922621;28;103405;-72
2023/12/28 07:39:54;;;;;;;;;18.00;16.00;;;;;-143.90;100.00;76371.50;4922213;28;101812;-71
2023/12/28 07:42:20;;;;;;;;;15.50;13.50;;;;;-143.90;100.00;76367.34;4924059;28;101828;-72
2023/12/28 07:44:48;;;;;;;;;24.75;21.75;;;;;-143.90;100.00;76369.41;4920348;28;103753;-72
2023/12/28 07:47:15;;;;;;;;;24.00;23.25;;;;;-143.90;100.00;76375.63;4923041;28;104655;-72
2023/12/28 07:49:42;;;;;;;;;20.67;16.33;;;;;-143.90;100.00;76367.34;4924605;28;101932;-72
2023/12/28 07:52:09;;;;;;;;;21.75;16.00;;;;;-143.90;100.00;76363.22;4923002;28;102704;-72
2023/12/28 07:54:35;;;;;;;;;25.75;19.00;;;;;-143.90;100.00;76354.94;4925723;28;102301;-72
2023/12/28 07:57:02;;;;;;;;;14.75;14.00;;;;;-143.90;100.00;76350.81;4921736;28;103399;-72
2023/12/28 07:59:29;;;;;;;;;14.75;14.00;;;;;-143.90;100.00;76340.47;4924294;28;101849;-72
2023/12/28 08:01:56;;;;;;;;;25.00;23.33;;;;;-143.90;100.00;76332.19;4921439;28;101562;-71
2023/12/28 08:04:23;;;;;;;;;54.67;43.00;;;;;-143.90;100.00;76338.41;4925643;28;102194;-72
2023/12/28 08:06:49;;;;;;;;;51.00;38.67;;;;;-143.90;100.00;76334.25;4916941;28;103634;-71
2023/12/28 08:09:16;;;;;;;;;31.67;26.00;;;;;-143.90;100.00;76315.66;4919706;28;102128;-72
2023/12/28 08:11:43;;;;;;;;;29.00;26.00;;;;;-143.90;100.00;76301.19;4922838;28;101954;-71
2023/12/28 08:14:09;;;;;;;;;37.00;30.00;;;;;-143.90;100.00;76288.78;4925398;28;101797;-71
2023/12/28 08:16:36;;;;;;;;;25.50;19.50;;;;;-143.90;100.00;76284.63;4922306;28;103412;-71
2023/12/28 08:19:03;;;;;;;;;23.75;16.00;;;;;-143.90;100.00;76278.44;4919096;28;101531;-70
2023/12/28 08:21:30;;;;;;;;;16.75;15.00;;;;;-143.90;100.00;76259.81;4922197;28;101826;-71
2023/12/28 08:23:56;;;;;;;;;26.50;18.50;;;;;-143.90;100.00;76247.41;4925252;28;102229;-71
2023/12/28 08:26:23;;;;;;;;;10.25;8.00;;;;;-143.90;100.00;76239.13;4923414;28;103438;-71
2023/12/28 08:28:50;;;;;;;;;18.00;15.50;;;;;-143.90;100.00;76226.72;4914759;28;102872;-71
2023/12/28 08:31:17;;;;;;;;;36.00;31.00;;;;;-143.90;100.00;76220.53;4921751;28;102137;-71
2023/12/28 08:33:44;;;;;;;;;20.75;20.75;;;;;-143.90;100.00;76222.59;4907729;28;101986;-71
2023/12/28 08:36:11;;;;;;;;;28.75;22.25;;;;;-143.90;100.00;76214.31;4922772;28;103630;-70
2023/12/28 08:38:38;;;;;;;;;22.00;18.75;;;;;-143.90;100.00;76199.84;4922446;28;106292;-70
2023/12/28 08:41:08;;;;;;;;;24.25;21.00;;;;;-143.90;100.00;76181.25;4912321;28;101685;-70
2023/12/28 08:43:36;;;;;;;;;27.25;21.00;;;;;-143.90;100.00;76181.25;4925552;28;101769;-71
2023/12/28 08:46:03;;;;;;;;;28.00;25.25;;;;;-143.90;100.00;76172.97;4924780;28;103485;-70
2023/12/28 08:48:30;;;;;;;;;20.50;18.25;;;;;-143.90;100.00;76152.28;4923245;28;102576;-70
2023/12/28 08:50:56;;;;;;;;;26.50;23.25;;;;;-143.90;100.00;76160.56;4917027;28;102040;-70
2023/12/28 08:53:23;;;;;;;;;28.00;22.00;;;;;-143.90;100.00;76152.28;4922045;28;101739;-71
2023/12/28 08:55:50;;;;;;;;;24.00;20.25;;;;;-143.90;100.00;76148.16;4920790;28;103531;-70
2023/12/28 08:58:16;;;;;;;;;20.25;18.00;;;;;-143.90;100.00;76131.59;4922968;28;102552;-70
2023/12/28 09:00:45;;;;;;;;;19.50;18.00;;;;;-143.90;100.00;76123.34;4921271;28;101578;-72
2023/12/28 09:03:12;;;;;;;;;26.50;23.75;;;;;-143.90;100.00;76119.19;4919670;28;102234;-71
2023/12/28 09:05:39;;;;;;;;;19.75;18.50;;;;;-143.90;100.00;76096.44;4917237;28;103361;-70
2023/12/28 09:08:06;;;;;;;;;23.50;20.00;;;;;-143.90;100.00;76079.91;4924867;28;101589;-70
2023/12/28 09:10:32;;;;;;;;;24.00;20.25;;;;;-143.90;100.00;76061.31;4925760;28;101933;-71
2023/12/28 09:12:59;;;;;;;;;26.00;23.50;;;;;-143.90;100.00;76048.88;4915934;28;101663;-71
2023/12/28 09:15:26;;;;;;;;;39.50;34.25;;;;;-143.90;100.00;76038.56;4920831;28;103585;-70
2023/12/28 09:17:53;;;;;;;;;34.25;32.50;;;;;-143.90;100.00;76024.06;4906643;28;102242;-70
2023/12/28 09:20:19;;;;;;;;;33.25;29.25;;;;;-143.90;100.00;76003.41;4920689;28;101808;-71
2023/12/28 09:22:47;;;;;;;;;27.25;25.00;;;;;-143.90;100.00;75986.84;4916454;28;102412;-71
2023/12/28 09:25:14;;;;;;;;;29.00;25.75;;;;;-143.90;100.00;75964.13;4920955;28;103571;-70
2023/12/28 09:27:41;;;;;;;;;25.00;21.75;;;;;-143.90;100.00;75941.38;4921878;28;101600;-71
2023/12/28 09:30:08;;;;;;;;;25.00;22.00;;;;;-143.90;100.00;75908.28;4923596;28;101456;-71
2023/12/28 09:32:35;;;;;;;;;22.50;21.50;;;;;-143.90;100.00;75887.59;4919578;28;101605;-72
2023/12/28 09:35:01;;;;;;;;;25.50;24.00;;;;;-143.90;100.00;75858.66;4918229;28;107999;-72
2023/12/28 09:37:28;;;;;;;;;27.50;23.00;;;;;-143.90;100.00;75829.72;4920823;28;101647;-71
2023/12/28 09:39:55;;;;;;;;;26.50;24.50;;;;;-143.90;100.00;75809.03;4922516;28;102118;-71
2023/12/28 09:42:38;;;;;;;;;17.75;15.00;;;;;-143.90;100.00;75790.41;4925541;28;101985;-72
2023/12/28 09:45:06;;;;;;;;;22.25;19.00;;;;;-143.90;100.00;75775.94;4911765;28;108008;-71
2023/12/28 09:47:33;;;;;;;;;21.00;18.50;;;;;-143.90;100.00;75763.53;4922447;28;102099;-72
2023/12/28 09:50:00;;;;;;;;;19.25;17.25;;;;;-143.90;100.00;75749.06;4924039;28;103624;-72
2023/12/28 09:52:27;;;;;;;;;25.00;17.00;;;;;-143.90;100.00;75738.72;4924001;28;101705;-72
2023/12/28 09:54:53;;;;;;;;;19.25;18.00;;;;;-143.90;100.00;75724.25;4914313;28;103526;-72
2023/12/28 09:57:20;;;;;;;;;18.75;17.25;;;;;-143.90;100.00;75711.84;4922247;28;101602;-72
2023/12/28 09:59:47;;;;;;;;;20.75;18.50;;;;;-143.90;100.00;75705.66;4923287;28;102054;-72
2023/12/28 10:02:15;;;;;;;;;18.25;15.00;;;;;-143.90;100.00;75697.38;4921583;28;101855;-73
2023/12/28 10:04:42;;;;;;;;;17.75;13.25;;;;;-143.90;100.00;75680.84;4921177;28;103499;-72
2023/12/28 10:07:09;;;;;;;;;19.25;16.00;;;;;-143.90;100.00;75672.56;4916652;28;102096;-72
2023/12/28 10:09:35;;;;;;;;;21.25;16.75;;;;;-143.90;100.00;75660.16;4921872;28;102078;-72
2023/12/28 10:12:06;;;;;;;;;14.50;13.75;;;;;-143.90;100.00;75627.06;4925844;28;101858;-72
2023/12/28 10:14:34;;;;;;;;;15.75;13.00;;;;;-143.90;100.00;75614.66;4920648;28;108014;-72
2023/12/28 10:17:00;;;;;;;;;13.50;12.00;;;;;-143.90;100.00;75616.72;4916737;28;101555;-72
2023/12/28 10:19:27;;;;;;;;;14.00;12.00;;;;;-143.90;100.00;75614.66;4921705;28;102400;-72
2023/12/28 10:21:54;;;;;;;;;17.25;16.00;;;;;-143.90;100.00;75604.34;4922881;28;101673;-72
2023/12/28 10:24:21;;;;;;;;;14.25;12.50;;;;;-143.90;100.00;75596.06;4923949;28;103406;-72
2023/12/28 10:26:48;;;;;;;;;13.25;13.25;;;;;-143.90;100.00;75591.94;4916811;28;101777;-71
2023/12/28 10:29:14;;;;;;;;;15.00;14.00;;;;;-143.90;100.00;75598.13;4922226;28;101786;-72
2023/12/28 10:31:43;;;;;;;;;14.25;14.00;;;;;-143.90;100.00;75594.00;4922387;28;101976;-72
2023/12/28 10:34:10;;;;;;;;;13.25;12.25;;;;;-143.90;100.00;75589.84;4920729;28;103664;-72
2023/12/28 10:36:41;;;;;;;;;14.00;13.25;;;;;-143.90;100.00;75587.78;4924216;28;105139;-72
2023/12/28 10:39:13;;;;;;;;;18.50;16.50;;;;;-143.90;100.00;75567.13;4919749;28;102566;-72
2023/12/28 10:41:43;;;;;;;;;13.00;12.25;;;;;-143.90;99.60;75538.16;4924424;28;102134;-72
2023/12/28 10:44:19;;;;;;;;;20.25;15.50;;;;;-143.90;98.80;75527.81;4920984;28;103533;-73
2023/12/28 10:46:51;;;;;;;;;22.25;17.75;;;;;-143.90;98.24;75515.41;4923482;28;101904;-72
2023/12/28 10:49:23;;;;;;;;;24.00;18.50;;;;;-143.90;97.40;75505.09;4922265;28;101956;-73